sensor_id;sensor_type;location;lat;lon;timestamp;P1;durP1;ratioP1;P2;durP2;ratioP2
11078;SDS011;5592;49.234;7.268;2023-04-25T00:01:10;8.50;;;7.10;;
11078;SDS011;5592;49.234;7.268;2023-04-25T00:03:38;10.70;;;7.47;;
11078;SDS011;5592;49.234;7.268;2023-04-25T00:06:04;8.90;;;7.13;;
11078;SDS011;5592;49.234;7.268;2023-04-25T00:08:31;12.80;;;6.83;;
11078;SDS011;5592;49.234;7.268;2023-04-25T00:10:57;9.90;;;7.27;;
11078;SDS011;5592;49.234;7.268;2023-04-25T00:13:23;8.23;;;6.33;;
11078;SDS011;5592;49.234;7.268;2023-04-25T00:15:50;9.43;;;6.70;;
11078;SDS011;5592;49.234;7.268;2023-04-25T00:18:18;11.77;;;8.33;;
11078;SDS011;5592;49.234;7.268;2023-04-25T00:20:44;9.30;;;6.77;;
11078;SDS011;5592;49.234;7.268;2023-04-25T00:23:12;9.60;;;7.20;;
11078;SDS011;5592;49.234;7.268;2023-04-25T00:25:43;10.00;;;7.30;;
11078;SDS011;5592;49.234;7.268;2023-04-25T00:28:10;8.90;;;6.70;;
11078;SDS011;5592;49.234;7.268;2023-04-25T00:30:38;14.23;;;7.47;;
11078;SDS011;5592;49.234;7.268;2023-04-25T00:33:05;8.97;;;7.07;;
11078;SDS011;5592;49.234;7.268;2023-04-25T00:35:31;12.20;;;7.50;;
11078;SDS011;5592;49.234;7.268;2023-04-25T00:37:57;9.53;;;7.50;;
11078;SDS011;5592;49.234;7.268;2023-04-25T00:40:22;9.60;;;7.00;;
11078;SDS011;5592;49.234;7.268;2023-04-25T00:42:48;9.63;;;6.90;;
11078;SDS011;5592;49.234;7.268;2023-04-25T00:45:16;14.60;;;7.10;;
11078;SDS011;5592;49.234;7.268;2023-04-25T00:47:42;12.17;;;7.97;;
11078;SDS011;5592;49.234;7.268;2023-04-25T00:50:08;8.00;;;6.10;;
11078;SDS011;5592;49.234;7.268;2023-04-25T00:52:34;12.63;;;7.57;;
11078;SDS011;5592;49.234;7.268;2023-04-25T00:55:02;10.67;;;8.10;;
11078;SDS011;5592;49.234;7.268;2023-04-25T00:57:27;12.40;;;6.90;;
11078;SDS011;5592;49.234;7.268;2023-04-25T00:59:53;15.30;;;8.63;;
11078;SDS011;5592;49.234;7.268;2023-04-25T01:02:20;9.60;;;7.27;;
11078;SDS011;5592;49.234;7.268;2023-04-25T01:04:47;10.90;;;8.17;;
11078;SDS011;5592;49.234;7.268;2023-04-25T01:07:16;11.23;;;8.07;;
11078;SDS011;5592;49.234;7.268;2023-04-25T01:09:42;10.50;;;8.17;;
11078;SDS011;5592;49.234;7.268;2023-04-25T01:12:08;9.90;;;7.97;;
11078;SDS011;5592;49.234;7.268;2023-04-25T01:14:33;10.63;;;7.60;;
11078;SDS011;5592;49.234;7.268;2023-04-25T01:17:00;13.60;;;7.60;;
11078;SDS011;5592;49.234;7.268;2023-04-25T01:19:25;9.63;;;7.57;;
11078;SDS011;5592;49.234;7.268;2023-04-25T01:21:51;11.27;;;7.93;;
11078;SDS011;5592;49.234;7.268;2023-04-25T01:24:16;11.67;;;8.00;;
11078;SDS011;5592;49.234;7.268;2023-04-25T01:26:42;11.40;;;8.13;;
11078;SDS011;5592;49.234;7.268;2023-04-25T01:29:18;11.90;;;8.43;;
11078;SDS011;5592;49.234;7.268;2023-04-25T01:31:45;11.53;;;8.13;;
11078;SDS011;5592;49.234;7.268;2023-04-25T01:34:11;12.30;;;8.43;;
11078;SDS011;5592;49.234;7.268;2023-04-25T01:36:37;10.20;;;7.60;;
11078;SDS011;5592;49.234;7.268;2023-04-25T01:39:03;11.03;;;7.97;;
11078;SDS011;5592;49.234;7.268;2023-04-25T01:41:29;11.50;;;8.70;;
11078;SDS011;5592;49.234;7.268;2023-04-25T01:43:55;12.40;;;8.40;;
11078;SDS011;5592;49.234;7.268;2023-04-25T01:46:21;12.13;;;7.77;;
11078;SDS011;5592;49.234;7.268;2023-04-25T01:48:47;14.30;;;8.93;;
11078;SDS011;5592;49.234;7.268;2023-04-25T01:51:12;11.20;;;7.37;;
11078;SDS011;5592;49.234;7.268;2023-04-25T01:53:38;12.27;;;8.20;;
11078;SDS011;5592;49.234;7.268;2023-04-25T01:56:05;11.53;;;8.20;;
11078;SDS011;5592;49.234;7.268;2023-04-25T01:58:31;10.90;;;7.97;;
11078;SDS011;5592;49.234;7.268;2023-04-25T02:00:56;11.20;;;7.70;;
11078;SDS011;5592;49.234;7.268;2023-04-25T02:03:22;13.90;;;8.63;;
11078;SDS011;5592;49.234;7.268;2023-04-25T02:05:47;12.57;;;8.70;;
11078;SDS011;5592;49.234;7.268;2023-04-25T02:08:13;10.00;;;7.77;;
11078;SDS011;5592;49.234;7.268;2023-04-25T02:10:39;10.23;;;8.03;;
11078;SDS011;5592;49.234;7.268;2023-04-25T02:13:04;10.40;;;7.77;;
11078;SDS011;5592;49.234;7.268;2023-04-25T02:15:30;11.80;;;8.03;;
11078;SDS011;5592;49.234;7.268;2023-04-25T02:17:56;11.23;;;8.27;;
11078;SDS011;5592;49.234;7.268;2023-04-25T02:20:23;12.40;;;7.83;;
11078;SDS011;5592;49.234;7.268;2023-04-25T02:22:49;10.67;;;8.67;;
11078;SDS011;5592;49.234;7.268;2023-04-25T02:25:15;11.37;;;8.17;;
11078;SDS011;5592;49.234;7.268;2023-04-25T02:27:41;12.63;;;8.90;;
11078;SDS011;5592;49.234;7.268;2023-04-25T02:30:08;12.50;;;8.50;;
11078;SDS011;5592;49.234;7.268;2023-04-25T02:32:33;16.33;;;9.37;;
11078;SDS011;5592;49.234;7.268;2023-04-25T02:35:00;16.43;;;9.03;;
11078;SDS011;5592;49.234;7.268;2023-04-25T02:37:29;15.60;;;10.00;;
11078;SDS011;5592;49.234;7.268;2023-04-25T02:39:58;16.30;;;9.67;;
11078;SDS011;5592;49.234;7.268;2023-04-25T02:42:24;12.90;;;8.80;;
11078;SDS011;5592;49.234;7.268;2023-04-25T02:44:49;12.97;;;8.73;;
11078;SDS011;5592;49.234;7.268;2023-04-25T02:47:15;11.57;;;8.33;;
11078;SDS011;5592;49.234;7.268;2023-04-25T02:49:41;11.57;;;8.83;;
11078;SDS011;5592;49.234;7.268;2023-04-25T02:52:06;17.83;;;8.00;;
11078;SDS011;5592;49.234;7.268;2023-04-25T02:54:32;13.83;;;8.80;;
11078;SDS011;5592;49.234;7.268;2023-04-25T02:56:58;13.70;;;9.63;;
11078;SDS011;5592;49.234;7.268;2023-04-25T02:59:23;11.33;;;7.80;;
11078;SDS011;5592;49.234;7.268;2023-04-25T03:01:49;12.60;;;8.30;;
11078;SDS011;5592;49.234;7.268;2023-04-25T03:04:15;12.27;;;8.17;;
11078;SDS011;5592;49.234;7.268;2023-04-25T03:06:40;14.50;;;10.07;;
11078;SDS011;5592;49.234;7.268;2023-04-25T03:09:06;11.93;;;7.90;;
11078;SDS011;5592;49.234;7.268;2023-04-25T03:11:32;12.97;;;8.70;;
11078;SDS011;5592;49.234;7.268;2023-04-25T03:13:57;14.87;;;11.00;;
11078;SDS011;5592;49.234;7.268;2023-04-25T03:16:23;12.40;;;8.47;;
11078;SDS011;5592;49.234;7.268;2023-04-25T03:18:49;14.30;;;8.67;;
11078;SDS011;5592;49.234;7.268;2023-04-25T03:21:15;12.47;;;8.77;;
11078;SDS011;5592;49.234;7.268;2023-04-25T03:23:41;13.77;;;9.20;;
11078;SDS011;5592;49.234;7.268;2023-04-25T03:26:07;14.57;;;9.17;;
11078;SDS011;5592;49.234;7.268;2023-04-25T03:28:32;13.93;;;10.00;;
11078;SDS011;5592;49.234;7.268;2023-04-25T03:30:58;13.53;;;9.43;;
11078;SDS011;5592;49.234;7.268;2023-04-25T03:33:24;15.80;;;9.53;;
11078;SDS011;5592;49.234;7.268;2023-04-25T03:35:50;13.27;;;9.00;;
11078;SDS011;5592;49.234;7.268;2023-04-25T03:38:16;20.97;;;10.13;;
11078;SDS011;5592;49.234;7.268;2023-04-25T03:40:42;13.30;;;9.77;;
11078;SDS011;5592;49.234;7.268;2023-04-25T03:43:07;17.00;;;10.67;;
11078;SDS011;5592;49.234;7.268;2023-04-25T03:45:33;16.90;;;11.10;;
11078;SDS011;5592;49.234;7.268;2023-04-25T03:47:58;13.23;;;9.17;;
11078;SDS011;5592;49.234;7.268;2023-04-25T03:50:24;16.50;;;11.00;;
11078;SDS011;5592;49.234;7.268;2023-04-25T03:52:50;15.77;;;10.00;;
11078;SDS011;5592;49.234;7.268;2023-04-25T03:55:15;14.50;;;10.23;;
11078;SDS011;5592;49.234;7.268;2023-04-25T03:57:41;16.30;;;10.53;;
11078;SDS011;5592;49.234;7.268;2023-04-25T04:00:07;19.60;;;11.60;;
11078;SDS011;5592;49.234;7.268;2023-04-25T04:02:33;16.60;;;10.10;;
11078;SDS011;5592;49.234;7.268;2023-04-25T04:04:59;18.87;;;11.10;;
11078;SDS011;5592;49.234;7.268;2023-04-25T04:07:25;17.53;;;9.97;;
11078;SDS011;5592;49.234;7.268;2023-04-25T04:09:51;18.90;;;11.13;;
11078;SDS011;5592;49.234;7.268;2023-04-25T04:12:17;14.30;;;10.23;;
11078;SDS011;5592;49.234;7.268;2023-04-25T04:14:42;16.40;;;10.93;;
11078;SDS011;5592;49.234;7.268;2023-04-25T04:17:08;18.40;;;9.97;;
11078;SDS011;5592;49.234;7.268;2023-04-25T04:19:33;19.20;;;10.70;;
11078;SDS011;5592;49.234;7.268;2023-04-25T04:21:59;17.20;;;10.63;;
11078;SDS011;5592;49.234;7.268;2023-04-25T04:24:28;17.50;;;10.00;;
11078;SDS011;5592;49.234;7.268;2023-04-25T04:26:53;19.43;;;12.17;;
11078;SDS011;5592;49.234;7.268;2023-04-25T04:29:20;22.63;;;11.43;;
11078;SDS011;5592;49.234;7.268;2023-04-25T04:31:49;17.77;;;11.00;;
11078;SDS011;5592;49.234;7.268;2023-04-25T04:34:15;17.60;;;11.60;;
11078;SDS011;5592;49.234;7.268;2023-04-25T04:36:44;13.60;;;9.73;;
11078;SDS011;5592;49.234;7.268;2023-04-25T04:39:13;16.30;;;10.50;;
11078;SDS011;5592;49.234;7.268;2023-04-25T04:41:39;12.40;;;9.40;;
11078;SDS011;5592;49.234;7.268;2023-04-25T04:44:05;14.30;;;9.03;;
11078;SDS011;5592;49.234;7.268;2023-04-25T04:46:34;12.83;;;9.53;;
11078;SDS011;5592;49.234;7.268;2023-04-25T04:49:07;14.33;;;9.90;;
11078;SDS011;5592;49.234;7.268;2023-04-25T04:51:33;19.67;;;10.43;;
11078;SDS011;5592;49.234;7.268;2023-04-25T04:53:59;15.23;;;9.83;;
11078;SDS011;5592;49.234;7.268;2023-04-25T04:56:27;11.93;;;8.83;;
11078;SDS011;5592;49.234;7.268;2023-04-25T04:58:54;15.13;;;9.93;;
11078;SDS011;5592;49.234;7.268;2023-04-25T05:01:20;14.73;;;9.40;;
11078;SDS011;5592;49.234;7.268;2023-04-25T05:03:45;17.93;;;10.00;;
11078;SDS011;5592;49.234;7.268;2023-04-25T05:06:11;15.87;;;10.10;;
11078;SDS011;5592;49.234;7.268;2023-04-25T05:08:37;14.03;;;9.87;;
11078;SDS011;5592;49.234;7.268;2023-04-25T05:11:02;15.17;;;10.50;;
11078;SDS011;5592;49.234;7.268;2023-04-25T05:13:28;15.73;;;11.17;;
11078;SDS011;5592;49.234;7.268;2023-04-25T05:15:54;21.23;;;9.27;;
11078;SDS011;5592;49.234;7.268;2023-04-25T05:18:19;13.73;;;9.80;;
11078;SDS011;5592;49.234;7.268;2023-04-25T05:20:45;14.57;;;9.00;;
11078;SDS011;5592;49.234;7.268;2023-04-25T05:23:11;15.27;;;9.77;;
11078;SDS011;5592;49.234;7.268;2023-04-25T05:25:36;10.67;;;8.90;;
11078;SDS011;5592;49.234;7.268;2023-04-25T05:28:02;22.93;;;10.63;;
11078;SDS011;5592;49.234;7.268;2023-04-25T05:30:28;14.07;;;9.20;;
11078;SDS011;5592;49.234;7.268;2023-04-25T05:32:53;11.50;;;8.33;;
11078;SDS011;5592;49.234;7.268;2023-04-25T05:35:19;12.93;;;8.80;;
11078;SDS011;5592;49.234;7.268;2023-04-25T05:37:45;10.60;;;8.60;;
11078;SDS011;5592;49.234;7.268;2023-04-25T05:40:11;12.40;;;8.80;;
11078;SDS011;5592;49.234;7.268;2023-04-25T05:42:37;11.00;;;8.37;;
11078;SDS011;5592;49.234;7.268;2023-04-25T05:45:03;13.13;;;9.20;;
11078;SDS011;5592;49.234;7.268;2023-04-25T05:47:29;12.97;;;9.07;;
11078;SDS011;5592;49.234;7.268;2023-04-25T05:49:55;11.53;;;8.80;;
11078;SDS011;5592;49.234;7.268;2023-04-25T05:52:20;13.70;;;9.30;;
11078;SDS011;5592;49.234;7.268;2023-04-25T05:54:46;13.20;;;8.67;;
11078;SDS011;5592;49.234;7.268;2023-04-25T05:57:19;16.10;;;9.27;;
11078;SDS011;5592;49.234;7.268;2023-04-25T05:59:50;13.50;;;9.23;;
11078;SDS011;5592;49.234;7.268;2023-04-25T06:02:15;12.40;;;9.17;;
11078;SDS011;5592;49.234;7.268;2023-04-25T06:04:45;13.40;;;8.80;;
11078;SDS011;5592;49.234;7.268;2023-04-25T06:07:11;15.27;;;9.93;;
11078;SDS011;5592;49.234;7.268;2023-04-25T06:09:37;11.37;;;8.03;;
11078;SDS011;5592;49.234;7.268;2023-04-25T06:12:04;12.70;;;9.73;;
11078;SDS011;5592;49.234;7.268;2023-04-25T06:14:30;13.43;;;9.20;;
11078;SDS011;5592;49.234;7.268;2023-04-25T06:16:56;12.60;;;9.50;;
11078;SDS011;5592;49.234;7.268;2023-04-25T06:19:24;15.70;;;9.70;;
11078;SDS011;5592;49.234;7.268;2023-04-25T06:21:49;13.63;;;10.20;;
11078;SDS011;5592;49.234;7.268;2023-04-25T06:24:15;12.47;;;9.67;;
11078;SDS011;5592;49.234;7.268;2023-04-25T06:26:40;13.27;;;10.67;;
11078;SDS011;5592;49.234;7.268;2023-04-25T06:29:06;16.17;;;10.33;;
11078;SDS011;5592;49.234;7.268;2023-04-25T06:31:32;14.33;;;10.00;;
11078;SDS011;5592;49.234;7.268;2023-04-25T06:33:58;13.80;;;10.20;;
11078;SDS011;5592;49.234;7.268;2023-04-25T06:36:24;13.37;;;10.03;;
11078;SDS011;5592;49.234;7.268;2023-04-25T06:38:51;14.07;;;10.30;;
11078;SDS011;5592;49.234;7.268;2023-04-25T06:41:17;13.40;;;10.70;;
11078;SDS011;5592;49.234;7.268;2023-04-25T06:43:43;17.03;;;10.90;;
11078;SDS011;5592;49.234;7.268;2023-04-25T06:46:09;13.60;;;10.00;;
11078;SDS011;5592;49.234;7.268;2023-04-25T06:48:35;15.50;;;11.13;;
11078;SDS011;5592;49.234;7.268;2023-04-25T06:51:01;15.93;;;11.10;;
11078;SDS011;5592;49.234;7.268;2023-04-25T06:53:30;15.47;;;11.63;;
11078;SDS011;5592;49.234;7.268;2023-04-25T06:55:55;16.93;;;11.97;;
11078;SDS011;5592;49.234;7.268;2023-04-25T06:58:24;15.47;;;12.00;;
11078;SDS011;5592;49.234;7.268;2023-04-25T07:00:51;12.90;;;9.97;;
11078;SDS011;5592;49.234;7.268;2023-04-25T07:03:17;17.07;;;11.70;;
11078;SDS011;5592;49.234;7.268;2023-04-25T07:05:42;18.53;;;12.00;;
11078;SDS011;5592;49.234;7.268;2023-04-25T07:08:08;13.30;;;10.63;;
11078;SDS011;5592;49.234;7.268;2023-04-25T07:10:33;15.63;;;10.83;;
11078;SDS011;5592;49.234;7.268;2023-04-25T07:12:59;19.30;;;12.97;;
11078;SDS011;5592;49.234;7.268;2023-04-25T07:15:27;15.63;;;11.17;;
11078;SDS011;5592;49.234;7.268;2023-04-25T07:17:52;18.50;;;12.37;;
11078;SDS011;5592;49.234;7.268;2023-04-25T07:20:18;17.53;;;11.93;;
11078;SDS011;5592;49.234;7.268;2023-04-25T07:22:43;19.10;;;12.43;;
11078;SDS011;5592;49.234;7.268;2023-04-25T07:25:09;17.03;;;12.30;;
11078;SDS011;5592;49.234;7.268;2023-04-25T07:27:35;16.50;;;11.20;;
11078;SDS011;5592;49.234;7.268;2023-04-25T07:30:00;15.83;;;11.40;;
11078;SDS011;5592;49.234;7.268;2023-04-25T07:32:28;15.30;;;11.27;;
11078;SDS011;5592;49.234;7.268;2023-04-25T07:34:54;15.80;;;10.53;;
11078;SDS011;5592;49.234;7.268;2023-04-25T07:37:20;17.80;;;11.70;;
11078;SDS011;5592;49.234;7.268;2023-04-25T07:39:45;18.50;;;11.73;;
11078;SDS011;5592;49.234;7.268;2023-04-25T07:42:11;13.43;;;11.03;;
11078;SDS011;5592;49.234;7.268;2023-04-25T07:44:37;16.07;;;11.07;;
11078;SDS011;5592;49.234;7.268;2023-04-25T07:47:05;13.00;;;9.23;;
11078;SDS011;5592;49.234;7.268;2023-04-25T07:49:32;15.30;;;9.83;;
11078;SDS011;5592;49.234;7.268;2023-04-25T07:52:02;17.30;;;9.70;;
11078;SDS011;5592;49.234;7.268;2023-04-25T07:54:30;11.80;;;8.57;;
11078;SDS011;5592;49.234;7.268;2023-04-25T07:56:57;11.90;;;9.40;;
11078;SDS011;5592;49.234;7.268;2023-04-25T07:59:23;12.00;;;8.93;;
11078;SDS011;5592;49.234;7.268;2023-04-25T08:01:48;12.33;;;9.23;;
11078;SDS011;5592;49.234;7.268;2023-04-25T08:04:14;11.53;;;8.33;;
11078;SDS011;5592;49.234;7.268;2023-04-25T08:06:39;12.80;;;8.83;;
11078;SDS011;5592;49.234;7.268;2023-04-25T08:09:05;11.47;;;8.13;;
11078;SDS011;5592;49.234;7.268;2023-04-25T08:11:34;9.10;;;7.90;;
11078;SDS011;5592;49.234;7.268;2023-04-25T08:14:00;17.30;;;7.67;;
11078;SDS011;5592;49.234;7.268;2023-04-25T08:16:26;10.10;;;7.70;;
11078;SDS011;5592;49.234;7.268;2023-04-25T08:18:52;12.40;;;7.67;;
11078;SDS011;5592;49.234;7.268;2023-04-25T08:21:17;10.13;;;6.63;;
11078;SDS011;5592;49.234;7.268;2023-04-25T08:23:43;9.50;;;6.20;;
11078;SDS011;5592;49.234;7.268;2023-04-25T08:26:08;12.40;;;7.57;;
11078;SDS011;5592;49.234;7.268;2023-04-25T08:28:34;10.70;;;6.83;;
11078;SDS011;5592;49.234;7.268;2023-04-25T08:30:59;9.60;;;6.67;;
11078;SDS011;5592;49.234;7.268;2023-04-25T08:33:25;7.27;;;6.27;;
11078;SDS011;5592;49.234;7.268;2023-04-25T08:35:51;6.17;;;5.20;;
11078;SDS011;5592;49.234;7.268;2023-04-25T08:38:18;7.50;;;5.73;;
11078;SDS011;5592;49.234;7.268;2023-04-25T08:40:44;5.93;;;5.33;;
11078;SDS011;5592;49.234;7.268;2023-04-25T08:43:15;9.53;;;6.00;;
11078;SDS011;5592;49.234;7.268;2023-04-25T08:45:42;6.80;;;5.40;;
11078;SDS011;5592;49.234;7.268;2023-04-25T08:48:10;6.63;;;5.80;;
11078;SDS011;5592;49.234;7.268;2023-04-25T08:50:50;7.07;;;5.57;;
11078;SDS011;5592;49.234;7.268;2023-04-25T08:53:22;5.07;;;4.40;;
11078;SDS011;5592;49.234;7.268;2023-04-25T08:55:52;5.27;;;4.53;;
11078;SDS011;5592;49.234;7.268;2023-04-25T08:58:19;4.47;;;4.07;;
11078;SDS011;5592;49.234;7.268;2023-04-25T09:00:48;5.80;;;4.73;;
11078;SDS011;5592;49.234;7.268;2023-04-25T09:03:17;7.63;;;4.40;;
11078;SDS011;5592;49.234;7.268;2023-04-25T09:05:43;4.63;;;3.90;;
11078;SDS011;5592;49.234;7.268;2023-04-25T09:08:08;6.20;;;4.27;;
11078;SDS011;5592;49.234;7.268;2023-04-25T09:10:34;4.30;;;3.83;;
11078;SDS011;5592;49.234;7.268;2023-04-25T09:15:31;8.20;;;4.10;;
11078;SDS011;5592;49.234;7.268;2023-04-25T09:17:58;4.33;;;3.80;;
11078;SDS011;5592;49.234;7.268;2023-04-25T09:20:24;5.37;;;4.10;;
11078;SDS011;5592;49.234;7.268;2023-04-25T09:23:00;8.53;;;4.23;;
11078;SDS011;5592;49.234;7.268;2023-04-25T09:25:33;4.70;;;4.10;;
11078;SDS011;5592;49.234;7.268;2023-04-25T09:28:03;4.80;;;4.30;;
11078;SDS011;5592;49.234;7.268;2023-04-25T09:30:31;4.80;;;3.67;;
11078;SDS011;5592;49.234;7.268;2023-04-25T09:33:04;4.37;;;3.70;;
11078;SDS011;5592;49.234;7.268;2023-04-25T09:35:34;4.30;;;2.97;;
11078;SDS011;5592;49.234;7.268;2023-04-25T09:38:14;3.90;;;3.00;;
11078;SDS011;5592;49.234;7.268;2023-04-25T09:40:41;4.20;;;2.93;;
11078;SDS011;5592;49.234;7.268;2023-04-25T09:43:10;2.57;;;2.37;;
11078;SDS011;5592;49.234;7.268;2023-04-25T09:45:47;3.60;;;2.37;;
11078;SDS011;5592;49.234;7.268;2023-04-25T09:48:20;9.53;;;2.90;;
11078;SDS011;5592;49.234;7.268;2023-04-25T09:51:03;5.70;;;2.87;;
11078;SDS011;5592;49.234;7.268;2023-04-25T09:53:30;2.50;;;2.30;;
11078;SDS011;5592;49.234;7.268;2023-04-25T09:55:57;6.20;;;2.50;;
11078;SDS011;5592;49.234;7.268;2023-04-25T09:58:25;2.70;;;2.50;;
11078;SDS011;5592;49.234;7.268;2023-04-25T10:00:54;2.77;;;2.37;;
11078;SDS011;5592;49.234;7.268;2023-04-25T10:03:25;3.10;;;2.47;;
11078;SDS011;5592;49.234;7.268;2023-04-25T10:05:51;3.63;;;2.40;;
11078;SDS011;5592;49.234;7.268;2023-04-25T10:08:18;2.23;;;2.00;;
11078;SDS011;5592;49.234;7.268;2023-04-25T10:10:45;3.13;;;2.00;;
11078;SDS011;5592;49.234;7.268;2023-04-25T10:13:15;2.20;;;1.73;;
11078;SDS011;5592;49.234;7.268;2023-04-25T10:15:41;2.50;;;1.43;;
11078;SDS011;5592;49.234;7.268;2023-04-25T10:18:07;1.57;;;1.47;;
11078;SDS011;5592;49.234;7.268;2023-04-25T10:20:33;2.00;;;1.50;;
11078;SDS011;5592;49.234;7.268;2023-04-25T10:23:15;1.63;;;1.53;;
11078;SDS011;5592;49.234;7.268;2023-04-25T10:25:41;2.00;;;1.70;;
11078;SDS011;5592;49.234;7.268;2023-04-25T10:28:08;2.97;;;2.10;;
11078;SDS011;5592;49.234;7.268;2023-04-25T10:30:33;3.60;;;2.50;;
11078;SDS011;5592;49.234;7.268;2023-04-25T10:32:59;3.63;;;2.00;;
11078;SDS011;5592;49.234;7.268;2023-04-25T10:35:26;3.70;;;2.10;;
11078;SDS011;5592;49.234;7.268;2023-04-25T10:38:11;2.23;;;2.00;;
11078;SDS011;5592;49.234;7.268;2023-04-25T10:40:39;4.70;;;2.50;;
11078;SDS011;5592;49.234;7.268;2023-04-25T10:45:56;2.90;;;2.60;;
11078;SDS011;5592;49.234;7.268;2023-04-25T10:48:24;3.90;;;3.10;;
11078;SDS011;5592;49.234;7.268;2023-04-25T10:53:30;4.40;;;2.30;;
11078;SDS011;5592;49.234;7.268;2023-04-25T10:55:58;4.13;;;3.30;;
11078;SDS011;5592;49.234;7.268;2023-04-25T10:58:23;3.77;;;2.90;;
11078;SDS011;5592;49.234;7.268;2023-04-25T11:00:49;3.37;;;2.80;;
11078;SDS011;5592;49.234;7.268;2023-04-25T11:03:16;3.77;;;3.40;;
11078;SDS011;5592;49.234;7.268;2023-04-25T11:05:41;4.80;;;2.80;;
11078;SDS011;5592;49.234;7.268;2023-04-25T11:08:11;4.27;;;3.40;;
11078;SDS011;5592;49.234;7.268;2023-04-25T11:10:39;5.07;;;3.03;;
11078;SDS011;5592;49.234;7.268;2023-04-25T11:13:05;4.10;;;3.50;;
11078;SDS011;5592;49.234;7.268;2023-04-25T11:15:31;3.63;;;3.33;;
11078;SDS011;5592;49.234;7.268;2023-04-25T11:17:56;4.40;;;3.30;;
11078;SDS011;5592;49.234;7.268;2023-04-25T11:20:22;3.33;;;3.07;;
11078;SDS011;5592;49.234;7.268;2023-04-25T11:22:51;4.20;;;3.40;;
11078;SDS011;5592;49.234;7.268;2023-04-25T11:25:16;5.70;;;4.30;;
11078;SDS011;5592;49.234;7.268;2023-04-25T11:27:52;5.83;;;3.67;;
11078;SDS011;5592;49.234;7.268;2023-04-25T11:30:18;3.90;;;3.50;;
11078;SDS011;5592;49.234;7.268;2023-04-25T11:32:45;5.40;;;3.80;;
11078;SDS011;5592;49.234;7.268;2023-04-25T11:35:11;5.43;;;3.67;;
11078;SDS011;5592;49.234;7.268;2023-04-25T11:37:42;5.10;;;3.90;;
11078;SDS011;5592;49.234;7.268;2023-04-25T11:40:08;5.97;;;3.40;;
11078;SDS011;5592;49.234;7.268;2023-04-25T11:42:45;5.07;;;4.10;;
11078;SDS011;5592;49.234;7.268;2023-04-25T11:45:11;6.07;;;4.13;;
11078;SDS011;5592;49.234;7.268;2023-04-25T11:47:38;6.23;;;3.70;;
11078;SDS011;5592;49.234;7.268;2023-04-25T11:50:05;5.30;;;3.33;;
11078;SDS011;5592;49.234;7.268;2023-04-25T11:55:17;6.23;;;3.87;;
11078;SDS011;5592;49.234;7.268;2023-04-25T11:57:44;4.27;;;3.53;;
11078;SDS011;5592;49.234;7.268;2023-04-25T12:00:16;6.60;;;3.83;;
11078;SDS011;5592;49.234;7.268;2023-04-25T12:02:46;6.40;;;4.17;;
11078;SDS011;5592;49.234;7.268;2023-04-25T12:05:17;7.27;;;4.17;;
11078;SDS011;5592;49.234;7.268;2023-04-25T12:07:43;6.13;;;3.97;;
11078;SDS011;5592;49.234;7.268;2023-04-25T12:10:10;6.83;;;3.97;;
11078;SDS011;5592;49.234;7.268;2023-04-25T12:12:37;8.07;;;3.90;;
11078;SDS011;5592;49.234;7.268;2023-04-25T12:15:10;7.13;;;4.60;;
11078;SDS011;5592;49.234;7.268;2023-04-25T12:17:40;13.63;;;4.60;;
11078;SDS011;5592;49.234;7.268;2023-04-25T12:20:10;7.13;;;4.70;;
11078;SDS011;5592;49.234;7.268;2023-04-25T12:22:37;4.50;;;3.60;;
11078;SDS011;5592;49.234;7.268;2023-04-25T12:25:09;5.30;;;4.60;;
11078;SDS011;5592;49.234;7.268;2023-04-25T12:27:38;6.43;;;4.03;;
11078;SDS011;5592;49.234;7.268;2023-04-25T12:30:09;6.80;;;4.57;;
11078;SDS011;5592;49.234;7.268;2023-04-25T12:32:35;6.17;;;4.90;;
11078;SDS011;5592;49.234;7.268;2023-04-25T12:35:02;6.87;;;4.50;;
11078;SDS011;5592;49.234;7.268;2023-04-25T12:37:29;6.43;;;4.00;;
11078;SDS011;5592;49.234;7.268;2023-04-25T12:39:55;5.83;;;4.47;;
11078;SDS011;5592;49.234;7.268;2023-04-25T12:42:20;4.70;;;4.20;;
11078;SDS011;5592;49.234;7.268;2023-04-25T12:44:46;5.30;;;4.57;;
11078;SDS011;5592;49.234;7.268;2023-04-25T12:47:11;6.57;;;4.73;;
11078;SDS011;5592;49.234;7.268;2023-04-25T12:49:37;6.07;;;4.43;;
11078;SDS011;5592;49.234;7.268;2023-04-25T12:52:03;8.40;;;3.73;;
11078;SDS011;5592;49.234;7.268;2023-04-25T12:54:28;5.00;;;4.17;;
11078;SDS011;5592;49.234;7.268;2023-04-25T12:56:54;5.07;;;4.37;;
11078;SDS011;5592;49.234;7.268;2023-04-25T12:59:20;7.60;;;5.40;;
11078;SDS011;5592;49.234;7.268;2023-04-25T13:01:46;9.43;;;5.27;;
11078;SDS011;5592;49.234;7.268;2023-04-25T13:04:11;6.13;;;4.27;;
11078;SDS011;5592;49.234;7.268;2023-04-25T13:06:37;5.80;;;4.17;;
11078;SDS011;5592;49.234;7.268;2023-04-25T13:09:03;6.83;;;4.40;;
11078;SDS011;5592;49.234;7.268;2023-04-25T13:11:29;6.00;;;3.90;;
11078;SDS011;5592;49.234;7.268;2023-04-25T13:13:55;7.60;;;4.43;;
11078;SDS011;5592;49.234;7.268;2023-04-25T13:16:21;6.13;;;5.03;;
11078;SDS011;5592;49.234;7.268;2023-04-25T13:18:47;8.13;;;4.00;;
11078;SDS011;5592;49.234;7.268;2023-04-25T13:21:13;8.07;;;5.30;;
11078;SDS011;5592;49.234;7.268;2023-04-25T13:23:39;7.10;;;4.57;;
11078;SDS011;5592;49.234;7.268;2023-04-25T13:26:07;7.60;;;4.30;;
11078;SDS011;5592;49.234;7.268;2023-04-25T13:28:33;9.07;;;5.20;;
11078;SDS011;5592;49.234;7.268;2023-04-25T13:30:58;6.43;;;4.30;;
11078;SDS011;5592;49.234;7.268;2023-04-25T13:33:24;5.70;;;4.53;;
11078;SDS011;5592;49.234;7.268;2023-04-25T13:35:50;12.13;;;4.80;;
11078;SDS011;5592;49.234;7.268;2023-04-25T13:38:22;7.40;;;4.83;;
11078;SDS011;5592;49.234;7.268;2023-04-25T13:40:49;7.30;;;5.30;;
11078;SDS011;5592;49.234;7.268;2023-04-25T13:43:17;9.20;;;4.77;;
11078;SDS011;5592;49.234;7.268;2023-04-25T13:45:49;10.10;;;5.60;;
11078;SDS011;5592;49.234;7.268;2023-04-25T13:48:15;10.07;;;5.53;;
11078;SDS011;5592;49.234;7.268;2023-04-25T13:50:41;6.83;;;5.30;;
11078;SDS011;5592;49.234;7.268;2023-04-25T13:53:06;5.03;;;4.53;;
11078;SDS011;5592;49.234;7.268;2023-04-25T13:55:33;9.70;;;5.40;;
11078;SDS011;5592;49.234;7.268;2023-04-25T13:58:01;6.27;;;4.70;;
11078;SDS011;5592;49.234;7.268;2023-04-25T14:00:32;5.93;;;4.07;;
11078;SDS011;5592;49.234;7.268;2023-04-25T14:02:58;7.37;;;4.10;;
11078;SDS011;5592;49.234;7.268;2023-04-25T14:05:24;4.80;;;3.83;;
11078;SDS011;5592;49.234;7.268;2023-04-25T14:07:49;8.13;;;4.00;;
11078;SDS011;5592;49.234;7.268;2023-04-25T14:10:16;8.00;;;4.27;;
11078;SDS011;5592;49.234;7.268;2023-04-25T14:12:41;10.40;;;4.47;;
11078;SDS011;5592;49.234;7.268;2023-04-25T14:15:10;4.57;;;3.97;;
11078;SDS011;5592;49.234;7.268;2023-04-25T14:17:36;7.53;;;4.47;;
11078;SDS011;5592;49.234;7.268;2023-04-25T14:20:02;8.20;;;3.50;;
11078;SDS011;5592;49.234;7.268;2023-04-25T14:22:30;5.07;;;3.90;;
11078;SDS011;5592;49.234;7.268;2023-04-25T14:24:56;6.80;;;3.63;;
11078;SDS011;5592;49.234;7.268;2023-04-25T14:27:21;9.60;;;4.17;;
11078;SDS011;5592;49.234;7.268;2023-04-25T14:29:47;4.50;;;3.53;;
11078;SDS011;5592;49.234;7.268;2023-04-25T14:32:13;6.63;;;3.60;;
11078;SDS011;5592;49.234;7.268;2023-04-25T14:34:38;5.53;;;3.57;;
11078;SDS011;5592;49.234;7.268;2023-04-25T14:37:05;5.80;;;3.80;;
11078;SDS011;5592;49.234;7.268;2023-04-25T14:39:30;7.37;;;4.10;;
11078;SDS011;5592;49.234;7.268;2023-04-25T14:41:56;5.93;;;3.80;;
11078;SDS011;5592;49.234;7.268;2023-04-25T14:44:22;3.50;;;3.20;;
11078;SDS011;5592;49.234;7.268;2023-04-25T14:46:48;3.83;;;3.43;;
11078;SDS011;5592;49.234;7.268;2023-04-25T14:49:16;5.47;;;4.20;;
11078;SDS011;5592;49.234;7.268;2023-04-25T14:51:42;5.10;;;4.60;;
11078;SDS011;5592;49.234;7.268;2023-04-25T14:54:07;4.90;;;4.40;;
11078;SDS011;5592;49.234;7.268;2023-04-25T14:56:33;8.43;;;4.17;;
11078;SDS011;5592;49.234;7.268;2023-04-25T14:58:58;5.50;;;4.63;;